sensor_id;sensor_type;location;lat;lon;timestamp;P1;durP1;ratioP1;P2;durP2;ratioP2
52202;SDS011;38173;52.850;6.970;2024-02-21T00:00:51;0.70;;;0.30;;
52202;SDS011;38173;52.850;6.970;2024-02-21T00:03:16;1.98;;;0.52;;
52202;SDS011;38173;52.850;6.970;2024-02-21T00:05:42;1.65;;;0.73;;
52202;SDS011;38173;52.850;6.970;2024-02-21T00:08:09;0.40;;;0.40;;
52202;SDS011;38173;52.850;6.970;2024-02-21T00:10:35;0.75;;;0.45;;
52202;SDS011;38173;52.850;6.970;2024-02-21T00:13:01;0.95;;;0.47;;
52202;SDS011;38173;52.850;6.970;2024-02-21T00:15:27;1.60;;;0.70;;
52202;SDS011;38173;52.850;6.970;2024-02-21T00:17:53;0.98;;;0.50;;
52202;SDS011;38173;52.850;6.970;2024-02-21T00:20:18;0.80;;;0.45;;
52202;SDS011;38173;52.850;6.970;2024-02-21T00:22:45;1.48;;;0.70;;
52202;SDS011;38173;52.850;6.970;2024-02-21T00:25:11;0.93;;;0.52;;
52202;SDS011;38173;52.850;6.970;2024-02-21T00:27:37;0.10;;;0.10;;
52202;SDS011;38173;52.850;6.970;2024-02-21T00:30:04;0.45;;;0.30;;
52202;SDS011;38173;52.850;6.970;2024-02-21T00:32:30;0.38;;;0.35;;
52202;SDS011;38173;52.850;6.970;2024-02-21T00:34:57;0.57;;;0.50;;
52202;SDS011;38173;52.850;6.970;2024-02-21T00:37:22;0.20;;;0.20;;
52202;SDS011;38173;52.850;6.970;2024-02-21T00:39:48;0.80;;;0.50;;
52202;SDS011;38173;52.850;6.970;2024-02-21T00:42:14;0.38;;;0.30;;
52202;SDS011;38173;52.850;6.970;2024-02-21T00:44:39;0.65;;;0.32;;
52202;SDS011;38173;52.850;6.970;2024-02-21T00:47:05;0.63;;;0.22;;
52202;SDS011;38173;52.850;6.970;2024-02-21T00:49:31;0.75;;;0.30;;
52202;SDS011;38173;52.850;6.970;2024-02-21T00:51:56;1.20;;;0.50;;
52202;SDS011;38173;52.850;6.970;2024-02-21T00:54:22;0.68;;;0.40;;
52202;SDS011;38173;52.850;6.970;2024-02-21T00:56:48;0.32;;;0.22;;
52202;SDS011;38173;52.850;6.970;2024-02-21T00:59:13;0.20;;;0.20;;
52202;SDS011;38173;52.850;6.970;2024-02-21T01:01:39;0.68;;;0.43;;
52202;SDS011;38173;52.850;6.970;2024-02-21T01:04:07;0.85;;;0.25;;
52202;SDS011;38173;52.850;6.970;2024-02-21T01:06:34;0.73;;;0.40;;
52202;SDS011;38173;52.850;6.970;2024-02-21T01:09:00;0.65;;;0.28;;
52202;SDS011;38173;52.850;6.970;2024-02-21T01:11:25;1.85;;;0.60;;
52202;SDS011;38173;52.850;6.970;2024-02-21T01:13:51;0.77;;;0.50;;
52202;SDS011;38173;52.850;6.970;2024-02-21T01:16:16;0.30;;;0.25;;
52202;SDS011;38173;52.850;6.970;2024-02-21T01:18:42;0.40;;;0.40;;
52202;SDS011;38173;52.850;6.970;2024-02-21T01:21:08;0.75;;;0.40;;
52202;SDS011;38173;52.850;6.970;2024-02-21T01:23:35;0.52;;;0.30;;
52202;SDS011;38173;52.850;6.970;2024-02-21T01:26:04;0.82;;;0.38;;
52202;SDS011;38173;52.850;6.970;2024-02-21T01:28:34;0.20;;;0.20;;
52202;SDS011;38173;52.850;6.970;2024-02-21T01:31:00;0.25;;;0.20;;
52202;SDS011;38173;52.850;6.970;2024-02-21T01:33:26;0.20;;;0.20;;
52202;SDS011;38173;52.850;6.970;2024-02-21T01:35:52;1.33;;;0.50;;
52202;SDS011;38173;52.850;6.970;2024-02-21T01:38:18;0.20;;;0.20;;
52202;SDS011;38173;52.850;6.970;2024-02-21T01:40:43;0.17;;;0.17;;
52202;SDS011;38173;52.850;6.970;2024-02-21T01:43:16;0.30;;;0.20;;
52202;SDS011;38173;52.850;6.970;2024-02-21T01:45:54;0.93;;;0.35;;
52202;SDS011;38173;52.850;6.970;2024-02-21T01:48:23;0.38;;;0.20;;
52202;SDS011;38173;52.850;6.970;2024-02-21T01:50:50;0.10;;;0.10;;
52202;SDS011;38173;52.850;6.970;2024-02-21T01:53:18;0.75;;;0.32;;
52202;SDS011;38173;52.850;6.970;2024-02-21T01:55:46;0.20;;;0.20;;
52202;SDS011;38173;52.850;6.970;2024-02-21T01:58:16;0.10;;;0.10;;
52202;SDS011;38173;52.850;6.970;2024-02-21T02:03:13;0.43;;;0.22;;
52202;SDS011;38173;52.850;6.970;2024-02-21T02:05:48;0.25;;;0.25;;
52202;SDS011;38173;52.850;6.970;2024-02-21T02:08:21;0.52;;;0.30;;
52202;SDS011;38173;52.850;6.970;2024-02-21T02:10:47;0.65;;;0.50;;
52202;SDS011;38173;52.850;6.970;2024-02-21T02:13:13;0.55;;;0.25;;
52202;SDS011;38173;52.850;6.970;2024-02-21T02:15:43;0.70;;;0.30;;
52202;SDS011;38173;52.850;6.970;2024-02-21T02:18:15;0.28;;;0.20;;
52202;SDS011;38173;52.850;6.970;2024-02-21T02:23:30;0.52;;;0.30;;
52202;SDS011;38173;52.850;6.970;2024-02-21T02:25:57;0.40;;;0.20;;
52202;SDS011;38173;52.850;6.970;2024-02-21T02:28:23;0.38;;;0.35;;
52202;SDS011;38173;52.850;6.970;2024-02-21T02:30:49;0.32;;;0.20;;
52202;SDS011;38173;52.850;6.970;2024-02-21T02:33:15;0.35;;;0.25;;
52202;SDS011;38173;52.850;6.970;2024-02-21T02:35:44;0.60;;;0.35;;
52202;SDS011;38173;52.850;6.970;2024-02-21T02:38:10;1.10;;;0.32;;
52202;SDS011;38173;52.850;6.970;2024-02-21T02:40:37;0.20;;;0.20;;
52202;SDS011;38173;52.850;6.970;2024-02-21T02:43:03;0.32;;;0.13;;
52202;SDS011;38173;52.850;6.970;2024-02-21T02:45:29;0.28;;;0.20;;
52202;SDS011;38173;52.850;6.970;2024-02-21T02:47:55;0.17;;;0.17;;
52202;SDS011;38173;52.850;6.970;2024-02-21T02:50:27;0.55;;;0.22;;
52202;SDS011;38173;52.850;6.970;2024-02-21T02:52:53;0.55;;;0.35;;
52202;SDS011;38173;52.850;6.970;2024-02-21T02:55:19;0.20;;;0.20;;
52202;SDS011;38173;52.850;6.970;2024-02-21T02:57:47;0.52;;;0.43;;
52202;SDS011;38173;52.850;6.970;2024-02-21T03:00:14;0.73;;;0.20;;
52202;SDS011;38173;52.850;6.970;2024-02-21T03:02:40;0.43;;;0.30;;
52202;SDS011;38173;52.850;6.970;2024-02-21T03:05:14;0.35;;;0.20;;
52202;SDS011;38173;52.850;6.970;2024-02-21T03:07:41;0.43;;;0.20;;
52202;SDS011;38173;52.850;6.970;2024-02-21T03:10:07;0.20;;;0.20;;
52202;SDS011;38173;52.850;6.970;2024-02-21T03:12:33;0.47;;;0.40;;
52202;SDS011;38173;52.850;6.970;2024-02-21T03:14:59;0.80;;;0.30;;
52202;SDS011;38173;52.850;6.970;2024-02-21T03:17:25;0.25;;;0.10;;
52202;SDS011;38173;52.850;6.970;2024-02-21T03:19:54;0.30;;;0.30;;
52202;SDS011;38173;52.850;6.970;2024-02-21T03:22:20;0.20;;;0.20;;
52202;SDS011;38173;52.850;6.970;2024-02-21T03:24:47;0.35;;;0.20;;
52202;SDS011;38173;52.850;6.970;2024-02-21T03:27:13;0.20;;;0.20;;
52202;SDS011;38173;52.850;6.970;2024-02-21T03:29:38;0.20;;;0.20;;
52202;SDS011;38173;52.850;6.970;2024-02-21T03:32:04;0.28;;;0.28;;
52202;SDS011;38173;52.850;6.970;2024-02-21T03:34:30;0.20;;;0.20;;
52202;SDS011;38173;52.850;6.970;2024-02-21T03:36:56;0.55;;;0.30;;
52202;SDS011;38173;52.850;6.970;2024-02-21T03:39:21;0.15;;;0.15;;
52202;SDS011;38173;52.850;6.970;2024-02-21T03:41:47;0.20;;;0.20;;
52202;SDS011;38173;52.850;6.970;2024-02-21T03:44:14;0.20;;;0.20;;
52202;SDS011;38173;52.850;6.970;2024-02-21T03:46:40;0.75;;;0.35;;
52202;SDS011;38173;52.850;6.970;2024-02-21T03:49:06;0.20;;;0.20;;
52202;SDS011;38173;52.850;6.970;2024-02-21T03:51:32;0.10;;;0.10;;
52202;SDS011;38173;52.850;6.970;2024-02-21T03:53:57;0.75;;;0.55;;
52202;SDS011;38173;52.850;6.970;2024-02-21T03:56:23;0.38;;;0.20;;
52202;SDS011;38173;52.850;6.970;2024-02-21T03:58:50;0.52;;;0.28;;
52202;SDS011;38173;52.850;6.970;2024-02-21T04:01:16;0.88;;;0.20;;
52202;SDS011;38173;52.850;6.970;2024-02-21T04:03:43;0.40;;;0.30;;
52202;SDS011;38173;52.850;6.970;2024-02-21T04:06:10;0.55;;;0.32;;
52202;SDS011;38173;52.850;6.970;2024-02-21T04:08:36;0.15;;;0.15;;
52202;SDS011;38173;52.850;6.970;2024-02-21T04:11:02;0.17;;;0.17;;
52202;SDS011;38173;52.850;6.970;2024-02-21T04:13:28;0.80;;;0.47;;
52202;SDS011;38173;52.850;6.970;2024-02-21T04:15:53;0.30;;;0.30;;
52202;SDS011;38173;52.850;6.970;2024-02-21T04:18:20;0.52;;;0.40;;
52202;SDS011;38173;52.850;6.970;2024-02-21T04:20:47;1.17;;;0.50;;
52202;SDS011;38173;52.850;6.970;2024-02-21T04:23:12;0.10;;;0.10;;
52202;SDS011;38173;52.850;6.970;2024-02-21T04:25:38;0.30;;;0.30;;
52202;SDS011;38173;52.850;6.970;2024-02-21T04:28:04;0.10;;;0.10;;
52202;SDS011;38173;52.850;6.970;2024-02-21T04:30:30;0.65;;;0.32;;
52202;SDS011;38173;52.850;6.970;2024-02-21T04:32:56;1.08;;;0.30;;
52202;SDS011;38173;52.850;6.970;2024-02-21T04:35:23;0.30;;;0.20;;
52202;SDS011;38173;52.850;6.970;2024-02-21T04:37:50;0.25;;;0.25;;
52202;SDS011;38173;52.850;6.970;2024-02-21T04:40:15;0.10;;;0.10;;
52202;SDS011;38173;52.850;6.970;2024-02-21T04:42:43;0.75;;;0.38;;
52202;SDS011;38173;52.850;6.970;2024-02-21T04:45:10;0.10;;;0.10;;
52202;SDS011;38173;52.850;6.970;2024-02-21T04:47:37;0.22;;;0.22;;
52202;SDS011;38173;52.850;6.970;2024-02-21T04:50:03;0.70;;;0.50;;
52202;SDS011;38173;52.850;6.970;2024-02-21T04:55:01;0.93;;;0.30;;
52202;SDS011;38173;52.850;6.970;2024-02-21T04:57:26;1.05;;;0.30;;
52202;SDS011;38173;52.850;6.970;2024-02-21T04:59:52;0.20;;;0.20;;
52202;SDS011;38173;52.850;6.970;2024-02-21T05:02:20;0.20;;;0.20;;
52202;SDS011;38173;52.850;6.970;2024-02-21T05:04:49;0.52;;;0.25;;
52202;SDS011;38173;52.850;6.970;2024-02-21T05:07:15;0.20;;;0.20;;
52202;SDS011;38173;52.850;6.970;2024-02-21T05:09:44;1.75;;;0.43;;
52202;SDS011;38173;52.850;6.970;2024-02-21T05:12:11;0.20;;;0.20;;
52202;SDS011;38173;52.850;6.970;2024-02-21T05:14:37;0.10;;;0.10;;
52202;SDS011;38173;52.850;6.970;2024-02-21T05:17:04;0.52;;;0.20;;
52202;SDS011;38173;52.850;6.970;2024-02-21T05:19:35;0.28;;;0.17;;
52202;SDS011;38173;52.850;6.970;2024-02-21T05:22:02;0.20;;;0.20;;
52202;SDS011;38173;52.850;6.970;2024-02-21T05:24:28;0.10;;;0.10;;
52202;SDS011;38173;52.850;6.970;2024-02-21T05:26:54;0.40;;;0.20;;
52202;SDS011;38173;52.850;6.970;2024-02-21T05:29:20;0.10;;;0.10;;
52202;SDS011;38173;52.850;6.970;2024-02-21T05:34:21;0.13;;;0.13;;
52202;SDS011;38173;52.850;6.970;2024-02-21T05:36:47;0.10;;;0.10;;
52202;SDS011;38173;52.850;6.970;2024-02-21T05:39:14;0.38;;;0.13;;
52202;SDS011;38173;52.850;6.970;2024-02-21T05:41:41;0.28;;;0.28;;
52202;SDS011;38173;52.850;6.970;2024-02-21T05:44:07;0.30;;;0.30;;
52202;SDS011;38173;52.850;6.970;2024-02-21T05:46:33;0.10;;;0.10;;
52202;SDS011;38173;52.850;6.970;2024-02-21T05:48:59;0.00;;;0.00;;
52202;SDS011;38173;52.850;6.970;2024-02-21T05:51:24;0.20;;;0.20;;
52202;SDS011;38173;52.850;6.970;2024-02-21T05:53:50;0.17;;;0.17;;
52202;SDS011;38173;52.850;6.970;2024-02-21T05:56:16;0.10;;;0.10;;
52202;SDS011;38173;52.850;6.970;2024-02-21T05:58:43;0.20;;;0.20;;
52202;SDS011;38173;52.850;6.970;2024-02-21T06:01:09;0.20;;;0.20;;
52202;SDS011;38173;52.850;6.970;2024-02-21T06:03:36;0.20;;;0.20;;
52202;SDS011;38173;52.850;6.970;2024-02-21T06:06:02;0.10;;;0.10;;
52202;SDS011;38173;52.850;6.970;2024-02-21T06:08:30;0.22;;;0.20;;
52202;SDS011;38173;52.850;6.970;2024-02-21T06:10:56;0.10;;;0.10;;
52202;SDS011;38173;52.850;6.970;2024-02-21T06:13:22;0.20;;;0.20;;
52202;SDS011;38173;52.850;6.970;2024-02-21T06:15:50;0.43;;;0.32;;
52202;SDS011;38173;52.850;6.970;2024-02-21T06:18:19;0.20;;;0.20;;
52202;SDS011;38173;52.850;6.970;2024-02-21T06:20:46;0.10;;;0.10;;
52202;SDS011;38173;52.850;6.970;2024-02-21T06:23:15;0.10;;;0.10;;
52202;SDS011;38173;52.850;6.970;2024-02-21T06:25:42;0.10;;;0.10;;
52202;SDS011;38173;52.850;6.970;2024-02-21T06:28:07;0.47;;;0.13;;
52202;SDS011;38173;52.850;6.970;2024-02-21T06:30:33;0.10;;;0.10;;
52202;SDS011;38173;52.850;6.970;2024-02-21T06:32:59;0.20;;;0.20;;
52202;SDS011;38173;52.850;6.970;2024-02-21T06:35:25;0.10;;;0.10;;
52202;SDS011;38173;52.850;6.970;2024-02-21T06:37:51;0.10;;;0.10;;
52202;SDS011;38173;52.850;6.970;2024-02-21T06:40:17;0.20;;;0.20;;
52202;SDS011;38173;52.850;6.970;2024-02-21T06:42:46;0.35;;;0.20;;
52202;SDS011;38173;52.850;6.970;2024-02-21T06:45:12;0.20;;;0.20;;
52202;SDS011;38173;52.850;6.970;2024-02-21T06:47:41;0.10;;;0.10;;
52202;SDS011;38173;52.850;6.970;2024-02-21T06:50:06;0.55;;;0.30;;
52202;SDS011;38173;52.850;6.970;2024-02-21T06:52:36;0.60;;;0.30;;
52202;SDS011;38173;52.850;6.970;2024-02-21T06:55:01;0.10;;;0.10;;
52202;SDS011;38173;52.850;6.970;2024-02-21T06:57:30;0.10;;;0.10;;
52202;SDS011;38173;52.850;6.970;2024-02-21T06:59:56;0.17;;;0.17;;
52202;SDS011;38173;52.850;6.970;2024-02-21T07:02:22;0.70;;;0.40;;
52202;SDS011;38173;52.850;6.970;2024-02-21T07:04:47;0.20;;;0.20;;
52202;SDS011;38173;52.850;6.970;2024-02-21T07:07:13;0.10;;;0.10;;
52202;SDS011;38173;52.850;6.970;2024-02-21T07:09:39;0.70;;;0.40;;
52202;SDS011;38173;52.850;6.970;2024-02-21T07:12:08;0.75;;;0.50;;
52202;SDS011;38173;52.850;6.970;2024-02-21T07:14:39;1.10;;;0.30;;
52202;SDS011;38173;52.850;6.970;2024-02-21T07:17:07;0.30;;;0.30;;
52202;SDS011;38173;52.850;6.970;2024-02-21T07:19:33;0.35;;;0.22;;
52202;SDS011;38173;52.850;6.970;2024-02-21T07:22:00;0.15;;;0.15;;
52202;SDS011;38173;52.850;6.970;2024-02-21T07:24:31;0.43;;;0.25;;
52202;SDS011;38173;52.850;6.970;2024-02-21T07:29:32;0.70;;;0.30;;
52202;SDS011;38173;52.850;6.970;2024-02-21T07:31:58;0.30;;;0.20;;
52202;SDS011;38173;52.850;6.970;2024-02-21T07:34:26;0.10;;;0.10;;
52202;SDS011;38173;52.850;6.970;2024-02-21T07:36:52;0.52;;;0.30;;
52202;SDS011;38173;52.850;6.970;2024-02-21T07:39:20;1.10;;;0.25;;
52202;SDS011;38173;52.850;6.970;2024-02-21T07:41:47;0.10;;;0.10;;
52202;SDS011;38173;52.850;6.970;2024-02-21T07:44:15;0.85;;;0.28;;
52202;SDS011;38173;52.850;6.970;2024-02-21T07:46:41;0.55;;;0.30;;
52202;SDS011;38173;52.850;6.970;2024-02-21T07:49:07;0.47;;;0.32;;
52202;SDS011;38173;52.850;6.970;2024-02-21T07:51:35;0.10;;;0.10;;
52202;SDS011;38173;52.850;6.970;2024-02-21T07:54:02;0.52;;;0.30;;
52202;SDS011;38173;52.850;6.970;2024-02-21T07:56:32;0.45;;;0.35;;
52202;SDS011;38173;52.850;6.970;2024-02-21T07:58:58;0.10;;;0.10;;
52202;SDS011;38173;52.850;6.970;2024-02-21T08:01:23;0.85;;;0.40;;
52202;SDS011;38173;52.850;6.970;2024-02-21T08:03:49;0.50;;;0.35;;
52202;SDS011;38173;52.850;6.970;2024-02-21T08:06:15;0.20;;;0.20;;
52202;SDS011;38173;52.850;6.970;2024-02-21T08:08:44;0.45;;;0.30;;
52202;SDS011;38173;52.850;6.970;2024-02-21T08:11:10;0.10;;;0.10;;
52202;SDS011;38173;52.850;6.970;2024-02-21T08:13:35;0.20;;;0.20;;
52202;SDS011;38173;52.850;6.970;2024-02-21T08:16:01;0.95;;;0.38;;
52202;SDS011;38173;52.850;6.970;2024-02-21T08:18:28;0.80;;;0.28;;
52202;SDS011;38173;52.850;6.970;2024-02-21T08:20:54;1.23;;;0.52;;
52202;SDS011;38173;52.850;6.970;2024-02-21T08:23:19;0.80;;;0.40;;
52202;SDS011;38173;52.850;6.970;2024-02-21T08:25:48;0.25;;;0.25;;
52202;SDS011;38173;52.850;6.970;2024-02-21T08:28:16;2.17;;;0.77;;
52202;SDS011;38173;52.850;6.970;2024-02-21T08:30:42;0.70;;;0.43;;
52202;SDS011;38173;52.850;6.970;2024-02-21T08:33:12;1.85;;;0.57;;
52202;SDS011;38173;52.850;6.970;2024-02-21T08:35:39;1.17;;;0.40;;
52202;SDS011;38173;52.850;6.970;2024-02-21T08:38:06;1.70;;;0.77;;
52202;SDS011;38173;52.850;6.970;2024-02-21T08:40:32;0.35;;;0.32;;
52202;SDS011;38173;52.850;6.970;2024-02-21T08:43:00;1.83;;;0.70;;
52202;SDS011;38173;52.850;6.970;2024-02-21T08:45:26;1.60;;;0.77;;
52202;SDS011;38173;52.850;6.970;2024-02-21T08:47:51;1.73;;;0.57;;
52202;SDS011;38173;52.850;6.970;2024-02-21T08:50:17;0.30;;;0.30;;
52202;SDS011;38173;52.850;6.970;2024-02-21T08:52:43;1.45;;;0.50;;
52202;SDS011;38173;52.850;6.970;2024-02-21T08:55:08;0.30;;;0.30;;
52202;SDS011;38173;52.850;6.970;2024-02-21T08:57:34;0.30;;;0.30;;
52202;SDS011;38173;52.850;6.970;2024-02-21T09:00:03;0.32;;;0.28;;
52202;SDS011;38173;52.850;6.970;2024-02-21T09:02:41;0.38;;;0.30;;
52202;SDS011;38173;52.850;6.970;2024-02-21T09:05:10;1.42;;;0.68;;
52202;SDS011;38173;52.850;6.970;2024-02-21T09:07:36;1.73;;;0.70;;
52202;SDS011;38173;52.850;6.970;2024-02-21T09:10:02;1.48;;;0.82;;
52202;SDS011;38173;52.850;6.970;2024-02-21T09:12:28;0.20;;;0.20;;
52202;SDS011;38173;52.850;6.970;2024-02-21T09:14:54;0.80;;;0.68;;
52202;SDS011;38173;52.850;6.970;2024-02-21T09:17:20;2.03;;;0.82;;
52202;SDS011;38173;52.850;6.970;2024-02-21T09:19:47;0.40;;;0.40;;
52202;SDS011;38173;52.850;6.970;2024-02-21T09:22:15;1.05;;;0.65;;
52202;SDS011;38173;52.850;6.970;2024-02-21T09:24:41;1.45;;;0.68;;
52202;SDS011;38173;52.850;6.970;2024-02-21T09:27:07;2.58;;;0.93;;
52202;SDS011;38173;52.850;6.970;2024-02-21T09:29:33;0.93;;;0.43;;
52202;SDS011;38173;52.850;6.970;2024-02-21T09:32:04;2.00;;;1.00;;
52202;SDS011;38173;52.850;6.970;2024-02-21T09:34:30;0.43;;;0.43;;
52202;SDS011;38173;52.850;6.970;2024-02-21T09:36:56;1.17;;;0.50;;
52202;SDS011;38173;52.850;6.970;2024-02-21T09:39:25;1.33;;;0.77;;
52202;SDS011;38173;52.850;6.970;2024-02-21T09:41:58;1.17;;;0.57;;
52202;SDS011;38173;52.850;6.970;2024-02-21T09:44:30;1.70;;;0.60;;
52202;SDS011;38173;52.850;6.970;2024-02-21T09:47:05;2.95;;;1.13;;
52202;SDS011;38173;52.850;6.970;2024-02-21T09:49:39;0.77;;;0.60;;
52202;SDS011;38173;52.850;6.970;2024-02-21T09:52:06;0.80;;;0.60;;
52202;SDS011;38173;52.850;6.970;2024-02-21T09:54:35;1.85;;;0.68;;
52202;SDS011;38173;52.850;6.970;2024-02-21T09:57:07;1.95;;;0.73;;
52202;SDS011;38173;52.850;6.970;2024-02-21T09:59:33;1.88;;;0.55;;
52202;SDS011;38173;52.850;6.970;2024-02-21T10:01:59;1.70;;;0.80;;
52202;SDS011;38173;52.850;6.970;2024-02-21T10:04:25;2.35;;;0.82;;
52202;SDS011;38173;52.850;6.970;2024-02-21T10:06:51;2.38;;;0.90;;
52202;SDS011;38173;52.850;6.970;2024-02-21T10:09:22;1.30;;;0.60;;
52202;SDS011;38173;52.850;6.970;2024-02-21T10:11:48;2.17;;;1.00;;
52202;SDS011;38173;52.850;6.970;2024-02-21T10:14:17;2.80;;;1.20;;
52202;SDS011;38173;52.850;6.970;2024-02-21T10:16:43;2.47;;;0.80;;
52202;SDS011;38173;52.850;6.970;2024-02-21T10:19:19;1.63;;;0.73;;
52202;SDS011;38173;52.850;6.970;2024-02-21T10:24:45;1.65;;;0.82;;
52202;SDS011;38173;52.850;6.970;2024-02-21T10:27:11;0.88;;;0.60;;
52202;SDS011;38173;52.850;6.970;2024-02-21T10:29:38;1.58;;;0.70;;
52202;SDS011;38173;52.850;6.970;2024-02-21T10:32:11;3.10;;;1.13;;
52202;SDS011;38173;52.850;6.970;2024-02-21T10:34:38;1.75;;;0.70;;
52202;SDS011;38173;52.850;6.970;2024-02-21T10:37:05;1.10;;;0.50;;
52202;SDS011;38173;52.850;6.970;2024-02-21T10:39:37;2.30;;;1.10;;
52202;SDS011;38173;52.850;6.970;2024-02-21T10:42:04;1.45;;;0.70;;
52202;SDS011;38173;52.850;6.970;2024-02-21T10:44:33;3.35;;;1.42;;
52202;SDS011;38173;52.850;6.970;2024-02-21T10:49:31;0.85;;;0.50;;
52202;SDS011;38173;52.850;6.970;2024-02-21T10:55:19;1.45;;;0.85;;
52202;SDS011;38173;52.850;6.970;2024-02-21T10:57:50;2.35;;;0.80;;
52202;SDS011;38173;52.850;6.970;2024-02-21T11:00:17;2.10;;;0.90;;
52202;SDS011;38173;52.850;6.970;2024-02-21T11:02:44;1.40;;;0.70;;
52202;SDS011;38173;52.850;6.970;2024-02-21T11:05:12;1.00;;;0.57;;
52202;SDS011;38173;52.850;6.970;2024-02-21T11:07:39;1.33;;;0.60;;
52202;SDS011;38173;52.850;6.970;2024-02-21T11:10:05;0.45;;;0.43;;
52202;SDS011;38173;52.850;6.970;2024-02-21T11:12:45;0.52;;;0.40;;
52202;SDS011;38173;52.850;6.970;2024-02-21T11:15:10;0.75;;;0.45;;
52202;SDS011;38173;52.850;6.970;2024-02-21T11:17:38;1.13;;;0.60;;
52202;SDS011;38173;52.850;6.970;2024-02-21T11:20:10;2.60;;;0.50;;
52202;SDS011;38173;52.850;6.970;2024-02-21T11:22:42;1.65;;;0.80;;
52202;SDS011;38173;52.850;6.970;2024-02-21T11:25:08;1.40;;;0.50;;
52202;SDS011;38173;52.850;6.970;2024-02-21T11:27:37;2.00;;;0.90;;
52202;SDS011;38173;52.850;6.970;2024-02-21T11:30:04;1.23;;;0.60;;
52202;SDS011;38173;52.850;6.970;2024-02-21T11:32:31;2.97;;;1.00;;
52202;SDS011;38173;52.850;6.970;2024-02-21T11:34:57;1.85;;;0.75;;
52202;SDS011;38173;52.850;6.970;2024-02-21T11:37:27;0.85;;;0.50;;
52202;SDS011;38173;52.850;6.970;2024-02-21T11:39:56;0.77;;;0.55;;
52202;SDS011;38173;52.850;6.970;2024-02-21T11:42:27;0.60;;;0.38;;
52202;SDS011;38173;52.850;6.970;2024-02-21T11:47:22;0.88;;;0.50;;
52202;SDS011;38173;52.850;6.970;2024-02-21T11:49:49;1.20;;;0.43;;
52202;SDS011;38173;52.850;6.970;2024-02-21T11:52:19;1.25;;;0.57;;
52202;SDS011;38173;52.850;6.970;2024-02-21T11:54:50;0.82;;;0.40;;
52202;SDS011;38173;52.850;6.970;2024-02-21T11:57:17;1.40;;;0.77;;
52202;SDS011;38173;52.850;6.970;2024-02-21T11:59:44;2.83;;;1.05;;
52202;SDS011;38173;52.850;6.970;2024-02-21T12:02:11;1.60;;;0.70;;
52202;SDS011;38173;52.850;6.970;2024-02-21T12:04:37;1.60;;;0.77;;
52202;SDS011;38173;52.850;6.970;2024-02-21T12:07:03;2.10;;;0.93;;
52202;SDS011;38173;52.850;6.970;2024-02-21T12:09:30;1.67;;;0.70;;
52202;SDS011;38173;52.850;6.970;2024-02-21T12:12:00;1.85;;;0.80;;
52202;SDS011;38173;52.850;6.970;2024-02-21T12:14:28;1.33;;;0.73;;
52202;SDS011;38173;52.850;6.970;2024-02-21T12:16:58;0.85;;;0.57;;
52202;SDS011;38173;52.850;6.970;2024-02-21T12:19:24;2.08;;;0.80;;
52202;SDS011;38173;52.850;6.970;2024-02-21T12:21:51;1.20;;;0.45;;
52202;SDS011;38173;52.850;6.970;2024-02-21T12:24:20;2.55;;;0.80;;
52202;SDS011;38173;52.850;6.970;2024-02-21T12:26:49;1.23;;;0.65;;
52202;SDS011;38173;52.850;6.970;2024-02-21T12:29:19;1.95;;;0.70;;
52202;SDS011;38173;52.850;6.970;2024-02-21T12:31:48;2.10;;;0.75;;
52202;SDS011;38173;52.850;6.970;2024-02-21T12:34:14;4.78;;;0.75;;
52202;SDS011;38173;52.850;6.970;2024-02-21T12:36:42;1.25;;;0.63;;
52202;SDS011;38173;52.850;6.970;2024-02-21T12:39:14;0.80;;;0.52;;
52202;SDS011;38173;52.850;6.970;2024-02-21T12:41:40;0.95;;;0.47;;
52202;SDS011;38173;52.850;6.970;2024-02-21T12:44:08;0.47;;;0.32;;
52202;SDS011;38173;52.850;6.970;2024-02-21T12:46:34;1.33;;;0.70;;
52202;SDS011;38173;52.850;6.970;2024-02-21T12:49:00;1.08;;;0.57;;
52202;SDS011;38173;52.850;6.970;2024-02-21T12:51:32;1.77;;;0.80;;
52202;SDS011;38173;52.850;6.970;2024-02-21T12:53:58;1.90;;;0.95;;
52202;SDS011;38173;52.850;6.970;2024-02-21T12:56:24;0.82;;;0.40;;
52202;SDS011;38173;52.850;6.970;2024-02-21T12:58:55;0.68;;;0.57;;
52202;SDS011;38173;52.850;6.970;2024-02-21T13:01:21;1.02;;;0.45;;
52202;SDS011;38173;52.850;6.970;2024-02-21T13:03:46;1.02;;;0.55;;
52202;SDS011;38173;52.850;6.970;2024-02-21T13:06:12;2.95;;;1.00;;
52202;SDS011;38173;52.850;6.970;2024-02-21T13:08:38;0.68;;;0.47;;
52202;SDS011;38173;52.850;6.970;2024-02-21T13:11:05;0.80;;;0.47;;
52202;SDS011;38173;52.850;6.970;2024-02-21T13:13:30;0.90;;;0.45;;
52202;SDS011;38173;52.850;6.970;2024-02-21T13:15:59;1.27;;;0.47;;
52202;SDS011;38173;52.850;6.970;2024-02-21T13:18:27;2.15;;;0.70;;
52202;SDS011;38173;52.850;6.970;2024-02-21T13:20:53;0.20;;;0.20;;
52202;SDS011;38173;52.850;6.970;2024-02-21T13:23:19;1.00;;;0.60;;
52202;SDS011;38173;52.850;6.970;2024-02-21T13:25:47;1.27;;;0.60;;
52202;SDS011;38173;52.850;6.970;2024-02-21T13:28:14;0.63;;;0.40;;
52202;SDS011;38173;52.850;6.970;2024-02-21T13:30:41;1.83;;;0.50;;
52202;SDS011;38173;52.850;6.970;2024-02-21T13:33:07;1.00;;;0.52;;
52202;SDS011;38173;52.850;6.970;2024-02-21T13:35:34;0.30;;;0.30;;
52202;SDS011;38173;52.850;6.970;2024-02-21T13:38:01;1.63;;;0.50;;
52202;SDS011;38173;52.850;6.970;2024-02-21T13:40:28;1.30;;;0.68;;
52202;SDS011;38173;52.850;6.970;2024-02-21T13:42:53;0.93;;;0.50;;
52202;SDS011;38173;52.850;6.970;2024-02-21T13:45:19;0.90;;;0.50;;
52202;SDS011;38173;52.850;6.970;2024-02-21T13:47:45;2.20;;;0.70;;
52202;SDS011;38173;52.850;6.970;2024-02-21T13:50:11;1.85;;;0.75;;
52202;SDS011;38173;52.850;6.970;2024-02-21T13:52:39;0.65;;;0.40;;
52202;SDS011;38173;52.850;6.970;2024-02-21T13:55:05;2.67;;;0.77;;
52202;SDS011;38173;52.850;6.970;2024-02-21T13:57:34;0.95;;;0.40;;
52202;SDS011;38173;52.850;6.970;2024-02-21T14:00:01;0.93;;;0.50;;
52202;SDS011;38173;52.850;6.970;2024-02-21T14:02:28;2.05;;;0.70;;
52202;SDS011;38173;52.850;6.970;2024-02-21T14:04:54;2.38;;;0.82;;
52202;SDS011;38173;52.850;6.970;2024-02-21T14:07:21;1.90;;;0.90;;
52202;SDS011;38173;52.850;6.970;2024-02-21T14:09:47;1.45;;;0.63;;
52202;SDS011;38173;52.850;6.970;2024-02-21T14:12:13;0.70;;;0.40;;
52202;SDS011;38173;52.850;6.970;2024-02-21T14:14:39;1.25;;;0.52;;
52202;SDS011;38173;52.850;6.970;2024-02-21T14:17:04;1.83;;;0.60;;
52202;SDS011;38173;52.850;6.970;2024-02-21T14:19:30;1.13;;;0.70;;
52202;SDS011;38173;52.850;6.970;2024-02-21T14:21:56;1.80;;;0.82;;
52202;SDS011;38173;52.850;6.970;2024-02-21T14:24:22;0.90;;;0.55;;
52202;SDS011;38173;52.850;6.970;2024-02-21T14:26:48;1.00;;;0.50;;
52202;SDS011;38173;52.850;6.970;2024-02-21T14:29:14;2.25;;;0.77;;
52202;SDS011;38173;52.850;6.970;2024-02-21T14:31:40;2.15;;;0.80;;
52202;SDS011;38173;52.850;6.970;2024-02-21T14:34:05;1.63;;;0.70;;
52202;SDS011;38173;52.850;6.970;2024-02-21T14:36:33;0.77;;;0.50;;
52202;SDS011;38173;52.850;6.970;2024-02-21T14:38:58;1.85;;;0.75;;
52202;SDS011;38173;52.850;6.970;2024-02-21T14:41:24;1.38;;;0.52;;
52202;SDS011;38173;52.850;6.970;2024-02-21T14:43:50;2.35;;;0.95;;
52202;SDS011;38173;52.850;6.970;2024-02-21T14:46:16;2.22;;;0.82;;
52202;SDS011;38173;52.850;6.970;2024-02-21T14:48:42;3.38;;;1.25;;
52202;SDS011;38173;52.850;6.970;2024-02-21T14:51:08;1.02;;;0.63;;
52202;SDS011;38173;52.850;6.970;2024-02-21T14:53:34;3.10;;;1.00;;
52202;SDS011;38173;52.850;6.970;2024-02-21T14:55:59;0.85;;;0.52;;
52202;SDS011;38173;52.850;6.970;2024-02-21T14:58:25;2.20;;;0.95;;
52202;SDS011;38173;52.850;6.970;2024-02-21T15:00:51;2.35;;;0.88;;
52202;SDS011;38173;52.850;6.970;2024-02-21T15:03:17;1.60;;;0.88;;
52202;SDS011;38173;52.850;6.970;2024-02-21T15:05:46;2.67;;;1.00;;
52202;SDS011;38173;52.850;6.970;2024-02-21T15:08:12;0.98;;;0.55;;
52202;SDS011;38173;52.850;6.970;2024-02-21T15:10:41;1.00;;;0.57;;